createdAt,value
2023-01-29T00:00:25.384Z,103086.25
2023-01-29T00:02:52.185Z,103077.63
2023-01-29T00:05:27.984Z,103074.16
2023-01-29T00:07:56.889Z,103071.56
2023-01-29T00:10:25.458Z,103064.66
2023-01-29T00:12:52.748Z,103061.22
2023-01-29T00:15:19.554Z,103055.16
2023-01-29T00:17:46.029Z,103052.56
2023-01-29T00:20:12.897Z,103044.81
2023-01-29T00:22:39.436Z,103041.34
2023-01-29T00:25:06.453Z,103039.63
2023-01-29T00:27:32.946Z,103037.06
2023-01-29T00:30:19.326Z,103024.09
2023-01-29T00:32:46.151Z,103028.44
2023-01-29T00:35:12.683Z,103034.47
2023-01-29T00:37:39.187Z,103032.75
2023-01-29T00:40:06.294Z,103044.81
2023-01-29T00:42:52.064Z,103043.94
2023-01-29T00:45:18.674Z,103038.75
2023-01-29T00:47:45.204Z,103041.34
2023-01-29T00:50:12.457Z,103033.59
2023-01-29T00:52:41.085Z,103028.41
2023-01-29T00:55:09.700Z,103033.56
2023-01-29T00:57:37.127Z,103025.81
2023-01-29T01:00:06.182Z,103024.09
2023-01-29T01:02:51.407Z,103023.22
2023-01-29T01:05:18.593Z,103021.47
2023-01-29T01:07:49.922Z,103021.47
2023-01-29T01:10:22.795Z,103021.50
2023-01-29T01:12:53.522Z,103019.78
2023-01-29T01:15:21.933Z,103015.44
2023-01-29T01:17:51.588Z,103010.31
2023-01-29T01:20:18.556Z,103014.63
2023-01-29T01:22:45.278Z,103016.34
2023-01-29T01:25:11.860Z,103002.59
2023-01-29T01:27:41.201Z,103008.59
2023-01-29T01:30:11.054Z,103006.88
2023-01-29T01:32:37.760Z,103014.66
2023-01-29T01:35:04.573Z,103018.09
2023-01-29T01:37:31.087Z,103018.97
2023-01-29T01:39:58.632Z,103028.44
2023-01-29T01:42:30.436Z,103023.28
2023-01-29T01:45:06.347Z,103023.28
2023-01-29T01:47:47.176Z,103026.69
2023-01-29T01:50:25.839Z,103024.97
2023-01-29T01:52:59.871Z,103023.28
2023-01-29T01:55:30.107Z,103022.38
2023-01-29T01:58:22.935Z,103028.44
2023-01-29T02:00:50.154Z,103024.13
2023-01-29T02:03:37.946Z,103018.97
2023-01-29T02:06:23.333Z,103014.63
2023-01-29T02:09:13.951Z,103016.38
2023-01-29T02:11:40.873Z,103023.28
2023-01-29T02:14:07.780Z,103026.72
2023-01-29T02:16:36.040Z,103020.69
2023-01-29T02:19:07.108Z,103025.00
2023-01-29T02:22:05.016Z,103022.38
2023-01-29T02:24:50.195Z,103021.56
2023-01-29T02:27:26.071Z,103023.28
2023-01-29T02:30:07.340Z,103025.84
2023-01-29T02:32:58.590Z,103020.72
2023-01-29T02:35:42.555Z,103021.59
2023-01-29T02:38:27.726Z,103030.22
2023-01-29T02:40:59.747Z,103039.66
2023-01-29T02:43:42.079Z,103040.56
2023-01-29T02:46:29.147Z,103037.13
2023-01-29T02:49:00.289Z,103034.50
2023-01-29T02:51:55.460Z,103035.41
2023-01-29T02:54:29.167Z,103036.25
2023-01-29T02:57:17.669Z,103041.41
2023-01-29T02:59:58.575Z,103039.69
2023-01-29T03:02:35.799Z,103031.91
2023-01-29T03:05:10.383Z,103035.41
2023-01-29T03:07:42.456Z,103029.38
2023-01-29T03:10:18.327Z,103024.16
2023-01-29T03:12:51.034Z,103026.78
2023-01-29T03:15:25.161Z,103025.03
2023-01-29T03:18:01.333Z,103022.44
2023-01-29T03:20:33.561Z,103012.94
2023-01-29T03:23:07.033Z,103011.22
2023-01-29T03:25:54.607Z,103012.09
2023-01-29T03:28:41.947Z,103006.06
2023-01-29T03:31:30.831Z,103000.88
2023-01-29T03:34:24.022Z,102999.16
2023-01-29T03:37:03.668Z,102986.25
2023-01-29T03:39:30.727Z,102981.94
2023-01-29T03:42:15.712Z,102981.94
2023-01-29T03:44:51.056Z,102976.75
2023-01-29T03:47:32.672Z,102974.16
2023-01-29T03:50:03.690Z,102969.00
2023-01-29T03:52:51.655Z,102971.59
2023-01-29T03:55:22.873Z,102968.13
2023-01-29T03:58:00.911Z,102975.03
2023-01-29T04:00:32.002Z,102974.16
2023-01-29T04:03:11.442Z,102970.69
2023-01-29T04:06:09.929Z,102959.50
2023-01-29T04:08:46.467Z,102969.00
2023-01-29T04:11:16.437Z,102955.22
2023-01-29T04:13:43.663Z,102945.72
2023-01-29T04:16:16.860Z,102950.91
2023-01-29T04:18:48.401Z,102941.41
2023-01-29T04:21:15.867Z,102954.31
2023-01-29T04:23:42.371Z,102951.72
2023-01-29T04:26:21.871Z,102956.00
2023-01-29T04:28:54.193Z,102951.72
2023-01-29T04:31:26.786Z,102937.97
2023-01-29T04:34:01.483Z,102939.66
2023-01-29T04:36:46.451Z,102939.66
2023-01-29T04:39:25.494Z,102950.84
2023-01-29T04:42:04.076Z,102941.41
2023-01-29T04:44:44.788Z,102935.34
2023-01-29T04:47:30.911Z,102931.06
2023-01-29T04:50:19.441Z,102935.34
2023-01-29T04:53:04.563Z,102938.81
2023-01-29T04:55:43.539Z,102926.72
2023-01-29T04:58:37.191Z,102928.44
2023-01-29T05:01:06.412Z,102923.28
2023-01-29T05:03:35.251Z,102911.22
2023-01-29T05:06:02.985Z,102918.97
2023-01-29T05:08:31.925Z,102916.38
2023-01-29T05:11:00.185Z,102911.22
2023-01-29T05:13:31.150Z,102915.53
2023-01-29T05:16:08.410Z,102907.75
2023-01-29T05:18:35.930Z,102913.78
2023-01-29T05:21:06.488Z,102919.81
2023-01-29T05:23:32.954Z,102916.34
2023-01-29T05:25:59.571Z,102918.94
2023-01-29T05:28:26.062Z,102926.69
2023-01-29T05:30:55.511Z,102929.25
2023-01-29T05:33:28.178Z,102929.25
2023-01-29T05:35:55.824Z,102934.44
2023-01-29T05:38:23.331Z,102932.72
2023-01-29T05:40:50.136Z,102925.84
2023-01-29T05:43:22.841Z,102929.25
2023-01-29T05:46:00.372Z,102928.41
2023-01-29T05:48:28.926Z,102918.06
2023-01-29T05:51:00.579Z,102931.84
2023-01-29T05:53:28.744Z,102936.13
2023-01-29T05:55:57.152Z,102931.84
2023-01-29T05:58:23.755Z,102916.34
2023-01-29T06:00:50.256Z,102904.25
2023-01-29T06:03:17.013Z,102903.41
2023-01-29T06:05:43.498Z,102899.09
2023-01-29T06:08:10.030Z,102897.38
2023-01-29T06:10:36.564Z,102898.25
2023-01-29T06:13:03.336Z,102892.22
2023-01-29T06:15:29.828Z,102885.34
2023-01-29T06:17:57.203Z,102891.34
2023-01-29T06:20:24.644Z,102887.03
2023-01-29T06:22:51.166Z,102886.16
2023-01-29T06:25:17.580Z,102885.31
2023-01-29T06:27:44.219Z,102880.16
2023-01-29T06:30:11.379Z,102880.16
2023-01-29T06:32:37.871Z,102871.53
2023-01-29T06:35:04.708Z,102873.28
2023-01-29T06:37:31.174Z,102878.44
2023-01-29T06:39:57.669Z,102878.44
2023-01-29T06:42:27.834Z,102874.13
2023-01-29T06:44:57.456Z,102870.72
2023-01-29T06:47:24.653Z,102875.03
2023-01-29T06:49:51.126Z,102881.91
2023-01-29T06:52:17.571Z,102875.03
2023-01-29T06:54:44.063Z,102878.47
2023-01-29T06:57:10.629Z,102867.28
2023-01-29T06:59:37.058Z,102876.75
2023-01-29T07:02:04.105Z,102871.59
2023-01-29T07:04:30.757Z,102873.31
2023-01-29T07:06:59.396Z,102871.59
2023-01-29T07:09:25.849Z,102860.41
2023-01-29T07:11:52.303Z,102871.59
2023-01-29T07:14:18.728Z,102877.59
2023-01-29T07:16:45.242Z,102875.03
2023-01-29T07:19:11.771Z,102866.41
2023-01-29T07:21:38.222Z,102869.00
2023-01-29T07:24:04.895Z,102881.91
2023-01-29T07:26:31.333Z,102880.19
2023-01-29T07:28:57.751Z,102877.59
2023-01-29T07:31:24.404Z,102870.72
2023-01-29T07:33:50.914Z,102869.00
2023-01-29T07:36:17.453Z,102875.03
2023-01-29T07:38:43.947Z,102882.78
2023-01-29T07:41:11.731Z,102875.03
2023-01-29T07:43:38.182Z,102861.25
2023-01-29T07:46:05.218Z,102864.69
2023-01-29T07:48:31.815Z,102858.69
2023-01-29T07:50:58.919Z,102851.81
2023-01-29T07:53:27.836Z,102852.66
2023-01-29T07:55:54.279Z,102852.69
2023-01-29T07:58:20.844Z,102846.63
2023-01-29T08:00:47.289Z,102840.63
2023-01-29T08:03:17.426Z,102829.44
2023-01-29T08:05:44.880Z,102830.28
2023-01-29T08:08:11.496Z,102834.59
2023-01-29T08:10:39.457Z,102838.06
2023-01-29T08:13:06.632Z,102834.63
2023-01-29T08:15:33.473Z,102828.59
2023-01-29T08:18:01.927Z,102829.47
2023-01-29T08:20:28.890Z,102823.44
2023-01-29T08:23:15.649Z,102837.22
2023-01-29T08:25:42.654Z,102833.78
2023-01-29T08:28:09.776Z,102827.78
2023-01-29T08:30:36.232Z,102835.53
2023-01-29T08:33:03.751Z,102822.63
2023-01-29T08:35:30.309Z,102822.63
2023-01-29T08:37:59.475Z,102813.97
2023-01-29T08:40:27.648Z,102814.00
2023-01-29T08:43:02.515Z,102801.09
2023-01-29T08:45:31.153Z,102804.56
2023-01-29T08:47:57.645Z,102807.13
2023-01-29T08:50:24.337Z,102797.66
2023-01-29T08:52:51.048Z,102802.84
2023-01-29T08:55:41.814Z,102798.53
2023-01-29T08:58:10.773Z,102794.25
2023-01-29T09:00:37.277Z,102794.25
2023-01-29T09:03:03.932Z,102789.06
2023-01-29T09:05:30.544Z,102792.50
2023-01-29T09:07:58.039Z,102791.66
2023-01-29T09:10:24.921Z,102789.06
2023-01-29T09:12:51.428Z,102800.28
2023-01-29T09:15:18.315Z,102795.13
2023-01-29T09:17:45.180Z,102794.25
2023-01-29T09:20:11.831Z,102791.66
2023-01-29T09:22:38.294Z,102786.53
2023-01-29T09:25:05.282Z,102787.38
2023-01-29T09:27:31.916Z,102789.09
2023-01-29T09:29:58.413Z,102802.88
2023-01-29T09:32:51.999Z,102794.28
2023-01-29T09:35:11.346Z,102794.28
2023-01-29T09:37:37.813Z,102794.28
2023-01-29T09:40:04.989Z,102802.03
2023-01-29T09:42:44.061Z,102795.13
2023-01-29T09:45:16.224Z,102787.38
2023-01-29T09:47:44.253Z,102801.19
2023-01-29T09:50:19.234Z,102790.81
2023-01-29T09:52:53.212Z,102795.97
2023-01-29T09:55:32.560Z,102792.56
2023-01-29T09:58:25.466Z,102786.50
2023-01-29T10:01:08.187Z,102783.91
2023-01-29T10:03:53.183Z,102792.56
2023-01-29T10:06:47.757Z,102788.22
2023-01-29T10:09:20.935Z,102794.28
2023-01-29T10:12:02.978Z,102780.47
2023-01-29T10:14:56.030Z,102778.75
2023-01-29T10:17:50.443Z,102773.56
2023-01-29T10:20:47.659Z,102777.88
2023-01-29T10:23:34.613Z,102774.44
2023-01-29T10:26:01.340Z,102767.53
2023-01-29T10:28:48.344Z,102766.69
2023-01-29T10:31:39.040Z,102769.25
2023-01-29T10:34:24.750Z,102759.75
2023-01-29T10:36:51.232Z,102753.75
2023-01-29T10:39:20.608Z,102753.75
2023-01-29T10:42:05.479Z,102741.66
2023-01-29T10:44:39.525Z,102735.63
2023-01-29T10:47:21.285Z,102734.75
2023-01-29T10:49:59.913Z,102720.06
2023-01-29T10:53:03.652Z,102722.66
2023-01-29T10:55:47.976Z,102720.94
2023-01-29T10:58:22.170Z,102716.63
2023-01-29T11:00:49.687Z,102713.13
2023-01-29T11:03:28.068Z,102713.13
2023-01-29T11:06:11.592Z,102693.28
2023-01-29T11:09:25.667Z,102701.91
2023-01-29T11:12:01.222Z,102708.78
2023-01-29T11:14:45.611Z,102697.56
2023-01-29T11:17:17.285Z,102687.22
2023-01-29T11:19:46.632Z,102688.09
2023-01-29T11:22:20.285Z,102688.91
2023-01-29T11:25:07.657Z,102688.91
2023-01-29T11:27:43.801Z,102684.63
2023-01-29T11:30:31.893Z,102678.56
2023-01-29T11:33:10.465Z,102682.88
2023-01-29T11:35:37.078Z,102686.34
2023-01-29T11:38:09.536Z,102675.13
2023-01-29T11:40:39.769Z,102677.69
2023-01-29T11:43:13.623Z,102670.81
2023-01-29T11:45:40.668Z,102664.78
2023-01-29T11:48:15.666Z,102663.03
2023-01-29T11:50:42.905Z,102664.78
2023-01-29T11:53:34.502Z,102658.72
2023-01-29T11:56:04.186Z,102655.25
2023-01-29T11:58:34.507Z,102654.41
2023-01-29T12:01:01.532Z,102644.06
2023-01-29T12:03:36.687Z,102644.06
2023-01-29T12:06:07.349Z,102644.06
2023-01-29T12:08:38.849Z,102637.13
2023-01-29T12:11:33.265Z,102640.59
2023-01-29T12:14:02.120Z,102633.69
2023-01-29T12:16:52.904Z,102623.34
2023-01-29T12:19:45.930Z,102616.41
2023-01-29T12:22:18.639Z,102609.53
2023-01-29T12:24:53.857Z,102600.03
2023-01-29T12:27:46.764Z,102595.72
2023-01-29T12:30:23.374Z,102591.38
2023-01-29T12:33:31.836Z,102584.50
2023-01-29T12:36:31.529Z,102581.84
2023-01-29T12:38:59.257Z,102565.47
2023-01-29T12:41:40.337Z,102574.97
2023-01-29T12:44:45.162Z,102567.22
2023-01-29T12:47:31.289Z,102560.28
2023-01-29T12:50:03.483Z,102555.97
2023-01-29T12:52:52.206Z,102545.63
2023-01-29T12:55:47.912Z,102543.94
2023-01-29T12:58:20.041Z,102527.53
2023-01-29T13:00:51.041Z,102520.63
2023-01-29T13:03:17.764Z,102518.03
2023-01-29T13:05:58.008Z,102503.34
2023-01-29T13:08:32.484Z,102495.59
2023-01-29T13:11:02.860Z,102491.28
2023-01-29T13:13:54.002Z,102485.22
2023-01-29T13:16:25.106Z,102474.84
2023-01-29T13:19:05.899Z,102466.22
2023-01-29T13:21:40.726Z,102464.50
2023-01-29T13:24:23.038Z,102451.53
2023-01-29T13:26:49.946Z,102441.13
2023-01-29T13:29:25.393Z,102439.34
2023-01-29T13:32:04.735Z,102426.38
2023-01-29T13:34:43.959Z,102434.09
2023-01-29T13:37:28.202Z,102426.31
2023-01-29T13:39:56.296Z,102437.47
2023-01-29T13:42:49.032Z,102422.75
2023-01-29T13:45:25.239Z,102426.25
2023-01-29T13:50:51.633Z,102422.75
2023-01-29T13:53:40.364Z,102424.44
2023-01-29T13:56:34.613Z,102419.25
2023-01-29T13:59:02.284Z,102415.78
2023-01-29T14:01:46.887Z,102417.50
2023-01-29T14:04:19.462Z,102414.03
2023-01-29T14:06:48.758Z,102414.88
2023-01-29T14:10:20.082Z,102411.41
2023-01-29T14:12:49.052Z,102411.38
2023-01-29T14:15:25.031Z,102407.94
2023-01-29T14:18:19.553Z,102402.75
2023-01-29T14:21:23.331Z,102392.38
2023-01-29T14:23:52.457Z,102388.88
2023-01-29T14:26:43.650Z,102394.06
2023-01-29T14:29:18.741Z,102395.78
2023-01-29T14:32:06.418Z,102403.56
2023-01-29T14:34:34.486Z,102400.09
2023-01-29T14:37:21.872Z,102391.41
2023-01-29T14:39:51.039Z,102380.16
2023-01-29T14:42:40.084Z,102378.44
2023-01-29T14:45:30.816Z,102383.66
2023-01-29T14:48:15.715Z,102363.78
2023-01-29T14:50:47.673Z,102370.69
2023-01-29T14:53:36.387Z,102373.31
2023-01-29T14:56:15.150Z,102372.47
2023-01-29T14:58:56.285Z,102368.13
2023-01-29T15:01:35.100Z,102362.97
2023-01-29T15:04:17.984Z,102356.06
2023-01-29T15:06:48.845Z,102343.97
2023-01-29T15:09:36.340Z,102353.44
2023-01-29T15:12:21.548Z,102342.19
2023-01-29T15:14:52.291Z,102338.75
2023-01-29T15:17:25.148Z,102338.75
2023-01-29T15:19:53.756Z,102337.88
2023-01-29T15:22:22.107Z,102340.47
2023-01-29T15:25:04.325Z,102335.28
2023-01-29T15:27:31.144Z,102335.31
2023-01-29T15:30:05.997Z,102330.13
2023-01-29T15:32:36.789Z,102337.09
2023-01-29T15:35:43.813Z,102335.38
2023-01-29T15:38:22.039Z,102332.78
2023-01-29T15:40:57.391Z,102321.56
2023-01-29T15:43:28.164Z,102317.28
2023-01-29T15:45:59.388Z,102315.56
2023-01-29T15:48:36.241Z,102306.09
2023-01-29T15:51:07.221Z,102295.75
2023-01-29T15:53:41.137Z,102307.84
2023-01-29T15:56:12.952Z,102306.09
2023-01-29T15:58:40.263Z,102306.97
2023-01-29T16:01:07.092Z,102297.50
2023-01-29T16:03:36.105Z,102307.03
2023-01-29T16:06:02.969Z,102312.19
2023-01-29T16:08:30.055Z,102308.78
2023-01-29T16:10:59.490Z,102314.81
2023-01-29T16:13:29.185Z,102320.88
2023-01-29T16:16:01.607Z,102321.78
2023-01-29T16:18:38.297Z,102318.38
2023-01-29T16:21:15.626Z,102309.81
2023-01-29T16:23:45.764Z,102308.13
2023-01-29T16:26:17.862Z,102316.75
2023-01-29T16:28:46.052Z,102315.97
2023-01-29T16:31:20.508Z,102315.97
2023-01-29T16:33:47.208Z,102313.34
2023-01-29T16:36:20.411Z,102312.50
2023-01-29T16:39:02.879Z,102309.94
2023-01-29T16:41:37.481Z,102298.75
2023-01-29T16:44:31.952Z,102294.47
2023-01-29T16:47:10.935Z,102289.25
2023-01-29T16:49:37.376Z,102278.09
2023-01-29T16:52:24.309Z,102285.06
2023-01-29T16:54:51.393Z,102298.00
2023-01-29T16:57:27.700Z,102281.66
2023-01-29T16:59:57.157Z,102280.78
2023-01-29T17:02:33.348Z,102287.72
2023-01-29T17:05:08.020Z,102272.25
2023-01-29T17:07:36.596Z,102288.66
2023-01-29T17:10:05.432Z,102279.22
2023-01-29T17:12:33.543Z,102286.97
2023-01-29T17:15:03.924Z,102267.16
2023-01-29T17:17:36.044Z,102281.81
2023-01-29T17:20:16.502Z,102272.34
2023-01-29T17:22:44.650Z,102281.00
2023-01-29T17:25:15.969Z,102270.66
2023-01-29T17:27:45.357Z,102272.38
2023-01-29T17:30:20.474Z,102268.94
2023-01-29T17:32:47.414Z,102271.53
2023-01-29T17:35:16.808Z,102266.34
2023-01-29T17:37:44.278Z,102275.88
2023-01-29T17:40:39.423Z,102271.56
2023-01-29T17:43:06.908Z,102263.81
2023-01-29T17:45:33.907Z,102250.00
2023-01-29T17:48:00.406Z,102243.13
2023-01-29T17:50:29.787Z,102231.88
2023-01-29T17:52:56.244Z,102233.59
2023-01-29T17:55:22.942Z,102233.59
2023-01-29T17:57:49.693Z,102223.25
2023-01-29T18:00:19.705Z,102224.09
2023-01-29T18:02:46.699Z,102212.03
2023-01-29T18:05:14.248Z,102212.91
2023-01-29T18:07:43.384Z,102212.88
2023-01-29T18:10:18.898Z,102212.00
2023-01-29T18:12:45.779Z,102203.41
2023-01-29T18:15:12.789Z,102200.78
2023-01-29T18:17:40.385Z,102193.00
2023-01-29T18:20:20.683Z,102198.19
2023-01-29T18:22:47.496Z,102180.06
2023-01-29T18:25:14.605Z,102187.81
2023-01-29T18:27:41.344Z,102200.72
2023-01-29T18:30:11.020Z,102189.47
2023-01-29T18:32:37.613Z,102176.53
2023-01-29T18:35:06.110Z,102161.84
2023-01-29T18:37:33.208Z,102169.59
2023-01-29T18:39:59.601Z,102164.41
2023-01-29T18:42:26.075Z,102156.66
2023-01-29T18:44:52.664Z,102142.81
2023-01-29T18:47:19.411Z,102141.13
2023-01-29T18:49:46.028Z,102129.91
2023-01-29T18:52:12.537Z,102121.25
2023-01-29T18:54:38.914Z,102116.06
2023-01-29T18:57:14.511Z,102121.25
2023-01-29T18:59:51.821Z,102116.06
2023-01-29T19:02:19.405Z,102114.34
2023-01-29T19:04:46.346Z,102113.47
2023-01-29T19:07:14.784Z,102109.19
2023-01-29T19:09:42.106Z,102098.81
2023-01-29T19:12:08.628Z,102081.56
2023-01-29T19:14:35.105Z,102081.53
2023-01-29T19:17:01.659Z,102076.34
2023-01-29T19:19:29.811Z,102072.06
2023-01-29T19:21:56.388Z,102070.28
2023-01-29T19:24:23.187Z,102067.69
2023-01-29T19:26:50.590Z,102079.78
2023-01-29T19:29:17.634Z,102091.00
2023-01-29T19:31:44.186Z,102074.66
2023-01-29T19:34:10.699Z,102066.84
2023-01-29T19:36:37.323Z,102060.81
2023-01-29T19:39:04.175Z,102072.88
2023-01-29T19:41:30.783Z,102074.59
2023-01-29T19:43:57.194Z,102066.81
2023-01-29T19:46:23.691Z,102053.88
2023-01-29T19:48:50.529Z,102055.56
2023-01-29T19:51:17.092Z,102073.69
2023-01-29T19:53:46.217Z,102069.38
2023-01-29T19:56:15.575Z,102050.38
2023-01-29T19:58:42.610Z,102043.47
2023-01-29T20:01:18.264Z,102039.16
2023-01-29T20:03:46.555Z,102043.47
2023-01-29T20:06:15.370Z,102051.19
2023-01-29T20:08:42.313Z,102052.09
2023-01-29T20:11:09.810Z,102048.66
2023-01-29T20:13:36.227Z,102041.72
2023-01-29T20:16:03.864Z,102048.66
2023-01-29T20:18:30.467Z,102044.28
2023-01-29T20:20:57.086Z,102041.69
2023-01-29T20:23:36.741Z,102044.28
2023-01-29T20:26:05.222Z,102045.13
2023-01-29T20:28:31.792Z,102040.75
2023-01-29T20:30:59.020Z,102034.72
2023-01-29T20:33:26.469Z,102026.97
2023-01-29T20:36:04.811Z,102024.38
2023-01-29T20:38:31.778Z,102019.19
2023-01-29T20:41:23.564Z,102026.97
2023-01-29T20:43:50.933Z,102049.38
2023-01-29T20:46:18.144Z,102039.81
2023-01-29T20:48:44.591Z,102030.31
2023-01-29T20:51:15.332Z,102033.75
2023-01-29T20:53:45.526Z,102017.38
2023-01-29T20:56:13.454Z,102041.50
2023-01-29T20:58:43.543Z,102027.69
2023-01-29T21:01:16.491Z,102026.78
2023-01-29T21:03:43.317Z,102022.47
2023-01-29T21:06:11.416Z,102028.50
2023-01-29T21:08:38.868Z,102017.25
2023-01-29T21:11:06.838Z,102012.06
2023-01-29T21:13:33.731Z,102025.84
2023-01-29T21:16:00.348Z,102021.47
2023-01-29T21:18:26.785Z,102021.47
2023-01-29T21:20:53.977Z,102032.69
2023-01-29T21:23:20.946Z,102013.66
2023-01-29T21:25:48.060Z,102012.78
2023-01-29T21:28:15.893Z,102030.84
2023-01-29T21:30:42.503Z,102029.94
2023-01-29T21:33:09.154Z,102014.31
2023-01-29T21:35:37.776Z,102023.81
2023-01-29T21:38:07.636Z,102016.88
2023-01-29T21:40:34.176Z,102019.41
2023-01-29T21:43:13.803Z,102008.16
2023-01-29T21:45:40.870Z,102025.38
2023-01-29T21:48:09.011Z,101996.84
2023-01-29T21:50:36.239Z,101971.78
2023-01-29T21:53:03.117Z,101963.09
2023-01-29T21:55:30.764Z,101947.47
2023-01-29T21:57:57.512Z,101935.34
2023-01-29T22:00:24.104Z,101929.31
2023-01-29T22:02:56.276Z,101907.69
2023-01-29T22:05:24.043Z,101907.63
2023-01-29T22:07:51.205Z,101895.53
2023-01-29T22:10:21.793Z,101892.94
2023-01-29T22:12:48.454Z,101889.50
2023-01-29T22:15:17.971Z,101879.94
2023-01-29T22:17:44.533Z,101915.34
2023-01-29T22:20:16.550Z,101916.16
2023-01-29T22:22:43.428Z,101900.59
2023-01-29T22:25:15.673Z,101889.31
2023-01-29T22:27:42.106Z,101885.00
2023-01-29T22:30:09.306Z,101884.09
2023-01-29T22:32:35.861Z,101883.25
2023-01-29T22:35:02.295Z,101886.63
2023-01-29T22:37:30.206Z,101890.06
2023-01-29T22:39:56.613Z,101878.78
2023-01-29T22:42:23.110Z,101875.22
2023-01-29T22:44:50.191Z,101862.28
2023-01-29T22:47:16.695Z,101860.53
2023-01-29T22:49:45.538Z,101856.19
2023-01-29T22:52:12.348Z,101850.03
2023-01-29T22:54:40.957Z,101848.22
2023-01-29T22:57:10.457Z,101841.28
2023-01-29T22:59:37.411Z,101840.31
2023-01-29T23:02:04.556Z,101829.03
2023-01-29T23:04:31.167Z,101857.50
2023-01-29T23:06:57.689Z,101853.09
2023-01-29T23:09:24.357Z,101848.69
2023-01-29T23:11:50.993Z,101841.75
2023-01-29T23:14:17.602Z,101849.41
2023-01-29T23:16:44.139Z,101842.47
2023-01-29T23:19:12.092Z,101825.09
2023-01-29T23:21:39.522Z,101826.81
2023-01-29T23:24:07.315Z,101814.66
2023-01-29T23:26:52.867Z,101824.13
2023-01-29T23:29:20.648Z,101819.69
2023-01-29T23:31:47.324Z,101812.75
2023-01-29T23:34:14.269Z,101793.63
2023-01-29T23:36:41.116Z,101781.50
2023-01-29T23:39:07.896Z,101770.22
2023-01-29T23:41:34.459Z,101783.97
2023-01-29T23:44:00.989Z,101772.56
2023-01-29T23:46:27.556Z,101768.16
2023-01-29T23:48:54.161Z,101764.69
2023-01-29T23:51:20.604Z,101772.47
2023-01-29T23:53:47.075Z,101763.81
2023-01-29T23:56:13.706Z,101765.50
2023-01-29T23:58:40.332Z,101762.00
